Dunsbach Ferry, New York
Current Conditions -  °F | °C
As of 4:51 PM on Friday 31 Oct 2014 (Local Time) from KALB Reporting Station
Broken Clouds Broken Clouds  
Wind Chill: 52°   Ceiling: 4200
Heat Index: 52°   Visibility: 10mi
Dew Point: 34°   Wind: 7mph
Humidity: 50%   Direction: 50°NE
Pressure: 29.95"   Gusts: NA
Location:  42.7824°N, 73.7303°W
Report Text: KALB 312051Z 05006KT 10SM BKN042 BKN055 BKN260 11/01 A2995 RMK AO2 SLP141 T01110011 56012
Loading
Personal Weather Stations






























Interactive Weather Map
Tropical Storm Tracking
New forecast layout! Learn more

10-Day Weather Forecast

Advertisements
Track Severe Weather on mobile